Efa — YJWE9 — position and weather

sailwx.info

Track history (hours):
 
Tides and Currents Weather Stations Pressure Air Temp Water Temp Dewpoint Dewpoint Depression Visibility Wind Speed Wind Dir Waves Ship Positions

Efa

Last reported at 2018-Feb-18 14:59 UTC. Time now 2018-Feb-21 03:43 UTC.
Position N 46°07' E 030°27'.

Length 114 m; draft 2.1 m.

Type: Cargo ship. MMSI: 577373000.

Date/timePositionNaut miles runAvg speedWind from/ knotsBaromVisibWave heightAir tempDewpointWater temp
2018-Feb-18 14:59N 46°07' E 030°27'102 6.8
2018-Feb-18 00:00N 44°37' E 029°20'5 8.5
2018-Feb-17 23:27N 44°32' E 029°18'4 8.3
2018-Feb-17 23:00N 44°28' E 029°17'4 8.1
2018-Feb-17 22:30N 44°24' E 029°16'4 8.3
2018-Feb-17 22:00N 44°20' E 029°15'4 8.7
2018-Feb-17 21:30N 44°16' E 029°14'4 8.7
2018-Feb-17 21:00N 44°12' E 029°13'5 8.8
2018-Feb-17 20:30N 44°07' E 029°12'4 8.9
2018-Feb-17 20:00N 44°03' E 029°11'4 8.8
2018-Feb-17 19:31N 43°59' E 029°09'4 8.8
2018-Feb-17 19:00N 43°55' E 029°08'5 9.1
2018-Feb-17 18:30N 43°50' E 029°07'  
2018-Feb-14 06:11N 40°46' E 029°31'0 0.1
2018-Feb-14 06:00N 40°46' E 029°31'1 2.7
2018-Feb-14 05:30N 40°46' E 029°29'2 4.7
2018-Feb-14 04:59N 40°44' E 029°26'4 7.8
2018-Feb-14 04:30N 40°44' E 029°22'4 7.4
2018-Feb-14 04:00N 40°44' E 029°17'3 7.0
2018-Feb-14 03:30N 40°46' E 029°13'4 7.0
2018-Feb-14 02:59N 40°48' E 029°08'3 6.9
2018-Feb-14 02:30N 40°49' E 029°05'3 6.6
2018-Feb-14 02:00N 40°50' E 029°00'166 8.0
2018-Feb-13 05:09N 43°36' E 029°03'1 8.8
2018-Feb-13 05:00N 43°38' E 029°03'4 8.5
2018-Feb-13 04:30N 43°42' E 029°04'4 8.7
2018-Feb-13 04:00N 43°46' E 029°06'5 9.0
2018-Feb-13 03:30N 43°51' E 029°07'5 9.2
2018-Feb-13 03:00N 43°55' E 029°08'5 9.0
2018-Feb-13 02:30N 43°60' E 029°09'4 8.8
2018-Feb-13 02:00N 44°04' E 029°10'4 8.8
2018-Feb-13 01:30N 44°08' E 029°12'4 9.0
2018-Feb-13 01:00N 44°13' E 029°13'5 9.1
2018-Feb-13 00:30N 44°17' E 029°14'5 9.1
2018-Feb-13 00:00N 44°21' E 029°15'5 9.1
2018-Feb-12 23:30N 44°26' E 029°17'5 9.1
2018-Feb-12 23:00N 44°30' E 029°18'  
Track history (hours):
 
Tides and Currents Weather Stations Pressure Air Temp Water Temp Dewpoint Dewpoint Depression Visibility Wind Speed Wind Dir Waves Ship Positions

Efa

Last reported at 2018-Feb-18 14:59 UTC. Time now 2018-Feb-21 03:43 UTC.
Position N 46°07' E 030°27'.

Length 114 m; draft 2.1 m.

Type: Cargo ship. MMSI: 577373000.

Date/timePositionNaut miles runAvg speedWind from/ knotsBaromVisibWave heightAir tempDewpointWater temp
2018-Feb-18 14:59N 46°07' E 030°27'102 6.8
2018-Feb-18 00:00N 44°37' E 029°20'5 8.5
2018-Feb-17 23:27N 44°32' E 029°18'4 8.3
2018-Feb-17 23:00N 44°28' E 029°17'4 8.1
2018-Feb-17 22:30N 44°24' E 029°16'4 8.3
2018-Feb-17 22:00N 44°20' E 029°15'4 8.7
2018-Feb-17 21:30N 44°16' E 029°14'4 8.7
2018-Feb-17 21:00N 44°12' E 029°13'5 8.8
2018-Feb-17 20:30N 44°07' E 029°12'4 8.9
2018-Feb-17 20:00N 44°03' E 029°11'4 8.8
2018-Feb-17 19:31N 43°59' E 029°09'4 8.8
2018-Feb-17 19:00N 43°55' E 029°08'5 9.1
2018-Feb-17 18:30N 43°50' E 029°07'  
2018-Feb-14 06:11N 40°46' E 029°31'0 0.1
2018-Feb-14 06:00N 40°46' E 029°31'1 2.7
2018-Feb-14 05:30N 40°46' E 029°29'2 4.7
2018-Feb-14 04:59N 40°44' E 029°26'4 7.8
2018-Feb-14 04:30N 40°44' E 029°22'4 7.4
2018-Feb-14 04:00N 40°44' E 029°17'3 7.0
2018-Feb-14 03:30N 40°46' E 029°13'4 7.0
2018-Feb-14 02:59N 40°48' E 029°08'3 6.9
2018-Feb-14 02:30N 40°49' E 029°05'3 6.6
2018-Feb-14 02:00N 40°50' E 029°00'166 8.0
2018-Feb-13 05:09N 43°36' E 029°03'1 8.8
2018-Feb-13 05:00N 43°38' E 029°03'4 8.5
2018-Feb-13 04:30N 43°42' E 029°04'4 8.7
2018-Feb-13 04:00N 43°46' E 029°06'5 9.0
2018-Feb-13 03:30N 43°51' E 029°07'5 9.2
2018-Feb-13 03:00N 43°55' E 029°08'5 9.0
2018-Feb-13 02:30N 43°60' E 029°09'4 8.8
2018-Feb-13 02:00N 44°04' E 029°10'4 8.8
2018-Feb-13 01:30N 44°08' E 029°12'4 9.0
2018-Feb-13 01:00N 44°13' E 029°13'5 9.1
2018-Feb-13 00:30N 44°17' E 029°14'5 9.1
2018-Feb-13 00:00N 44°21' E 029°15'5 9.1
2018-Feb-12 23:30N 44°26' E 029°17'5 9.1
2018-Feb-12 23:00N 44°30' E 029°18'  

Dump ship's entire track history